Time;durP1;ratioP1;P1;durP2;ratioP2;P2;SDS_P1;SDS_P2;PMS_P1;PMS_P2;Temp;Humidity;BMP_temperature;BMP_pressure;BME280_temperature;BME280_humidity;BME280_pressure;Samples;Min_cycle;Max_cycle;Signal;HPM_P1;HPM_P2
2022/07/29 00:02:03;;;;;;;8.30;7.57;;;;;;;;;;5011147;28;20453;-77
2022/07/29 00:04:30;;;;;;;8.90;8.10;;;;;;;;;;5010502;28;20463;-76
2022/07/29 00:06:57;;;;;;;7.87;7.20;;;;;;;;;;5010474;28;20455;-77
2022/07/29 00:09:25;;;;;;;8.73;8.13;;;;;;;;;;5010205;28;20807;-77
2022/07/29 00:11:52;;;;;;;8.43;7.83;;;;;;;;;;5010651;28;20451;-76
2022/07/29 00:14:19;;;;;;;8.10;7.33;;;;;;;;;;5009970;28;20666;-78
2022/07/29 00:16:46;;;;;;;9.13;8.43;;;;;;;;;;5011081;28;20447;-77
2022/07/29 00:19:13;;;;;;;8.50;7.70;;;;;;;;;;5010739;28;20789;-78
2022/07/29 00:21:40;;;;;;;8.50;7.90;;;;;;;;;;5010646;28;20447;-78
2022/07/29 00:24:07;;;;;;;7.83;7.33;;;;;;;;;;5010066;28;20517;-76
2022/07/29 00:26:36;;;;;;;8.10;7.30;;;;;;;;;;5014776;28;20447;-75
2022/07/29 00:29:04;;;;;;;8.73;7.80;;;;;;;;;;5014498;28;20854;-76
2022/07/29 00:31:31;;;;;;;8.10;7.53;;;;;;;;;;5018535;28;20439;-78
2022/07/29 00:33:58;;;;;;;8.70;8.07;;;;;;;;;;5016190;28;20463;-76
2022/07/29 00:36:24;;;;;;;8.47;7.77;;;;;;;;;;5014784;28;20439;-77
2022/07/29 00:38:52;;;;;;;7.60;6.90;;;;;;;;;;5014760;28;20435;-77
2022/07/29 00:41:19;;;;;;;8.10;7.50;;;;;;;;;;5015275;28;20951;-76
2022/07/29 00:43:48;;;;;;;7.83;7.40;;;;;;;;;;5015571;28;20467;-78
2022/07/29 00:46:15;;;;;;;7.70;7.13;;;;;;;;;;5014751;28;20509;-76
2022/07/29 00:48:42;;;;;;;8.30;7.70;;;;;;;;;;5015748;28;20446;-77
2022/07/29 00:51:10;;;;;;;8.23;7.73;;;;;;;;;;5014547;28;20447;-78
2022/07/29 00:53:38;;;;;;;9.57;8.80;;;;;;;;;;5014427;28;20470;-77
2022/07/29 00:56:05;;;;;;;8.40;7.67;;;;;;;;;;5014901;28;21044;-77
2022/07/29 00:58:33;;;;;;;8.10;7.50;;;;;;;;;;5014504;28;20493;-77
2022/07/29 01:01:01;;;;;;;8.73;7.87;;;;;;;;;;5016254;28;20518;-75
2022/07/29 01:03:28;;;;;;;9.10;8.40;;;;;;;;;;5015947;28;20467;-77
2022/07/29 01:05:55;;;;;;;7.77;7.27;;;;;;;;;;5016591;28;20904;-77
2022/07/29 01:08:23;;;;;;;8.20;7.60;;;;;;;;;;5017992;28;20518;-79
2022/07/29 01:10:50;;;;;;;8.30;7.73;;;;;;;;;;5018072;28;20458;-76
2022/07/29 01:13:17;;;;;;;7.93;7.40;;;;;;;;;;5014196;28;20525;-76
2022/07/29 01:15:45;;;;;;;8.30;7.60;;;;;;;;;;5013778;28;20902;-76
2022/07/29 01:18:17;;;;;;;8.00;7.30;;;;;;;;;;5015052;28;20497;-76
2022/07/29 01:20:55;;;;;;;8.07;7.47;;;;;;;;;;5018208;28;20940;-76
2022/07/29 01:23:32;;;;;;;7.67;7.17;;;;;;;;;;5016767;28;20887;-77
2022/07/29 01:26:05;;;;;;;7.70;7.13;;;;;;;;;;5014620;28;20431;-76
2022/07/29 01:28:39;;;;;;;7.67;7.07;;;;;;;;;;5015541;28;20509;-78
2022/07/29 01:31:08;;;;;;;7.83;7.20;;;;;;;;;;5014688;28;20451;-76
2022/07/29 01:33:51;;;;;;;8.27;7.67;;;;;;;;;;5025050;28;20464;-77
2022/07/29 01:36:20;;;;;;;7.83;7.13;;;;;;;;;;5016999;28;20482;-77
2022/07/29 01:38:51;;;;;;;7.30;6.70;;;;;;;;;;5023498;28;20495;-78
2022/07/29 01:41:20;;;;;;;7.50;6.80;;;;;;;;;;5017502;28;20843;-76
2022/07/29 01:43:53;;;;;;;7.00;6.60;;;;;;;;;;5031003;28;20463;-78
2022/07/29 01:46:22;;;;;;;7.07;6.67;;;;;;;;;;5026680;28;20447;-76
2022/07/29 01:48:52;;;;;;;7.57;6.97;;;;;;;;;;5030491;28;20527;-76
2022/07/29 01:51:20;;;;;;;6.73;6.33;;;;;;;;;;5024126;28;20446;-77
2022/07/29 01:53:49;;;;;;;7.77;7.27;;;;;;;;;;5016353;28;20971;-75
2022/07/29 01:56:18;;;;;;;7.13;6.60;;;;;;;;;;5013957;28;21116;-76
2022/07/29 01:58:45;;;;;;;6.53;6.10;;;;;;;;;;5014633;28;20447;-77
2022/07/29 02:01:14;;;;;;;6.67;6.27;;;;;;;;;;5013649;28;20505;-78
2022/07/29 02:03:44;;;;;;;7.10;6.67;;;;;;;;;;5012507;28;20513;-75
2022/07/29 02:06:12;;;;;;;6.83;6.20;;;;;;;;;;5013505;28;20502;-76
2022/07/29 02:08:40;;;;;;;6.27;5.90;;;;;;;;;;5013747;28;20517;-78
2022/07/29 02:11:08;;;;;;;7.03;6.53;;;;;;;;;;4996877;28;20440;-77
2022/07/29 02:13:36;;;;;;;6.80;6.30;;;;;;;;;;4993066;28;20507;-77
2022/07/29 02:16:05;;;;;;;6.30;5.90;;;;;;;;;;4996287;28;20484;-76
2022/07/29 02:18:34;;;;;;;6.50;6.00;;;;;;;;;;4993749;28;20492;-78
2022/07/29 02:21:02;;;;;;;6.43;6.03;;;;;;;;;;4993248;28;20990;-77
2022/07/29 02:23:30;;;;;;;7.03;6.43;;;;;;;;;;4993627;28;20472;-77
2022/07/29 02:25:58;;;;;;;6.10;5.70;;;;;;;;;;4993239;28;20507;-77
2022/07/29 02:28:25;;;;;;;6.60;5.87;;;;;;;;;;4993530;28;20948;-77
2022/07/29 02:30:54;;;;;;;6.63;6.03;;;;;;;;;;4994432;28;20484;-77
2022/07/29 02:33:21;;;;;;;6.40;6.00;;;;;;;;;;4993364;28;20546;-76
2022/07/29 02:35:50;;;;;;;6.10;5.70;;;;;;;;;;4993192;28;20495;-76
2022/07/29 02:41:05;;;;;;;6.00;5.50;;;;;;;;;;4993177;28;20411;-77
2022/07/29 02:43:33;;;;;;;6.13;5.73;;;;;;;;;;4992202;28;20560;-76
2022/07/29 02:46:00;;;;;;;5.83;5.43;;;;;;;;;;4993182;28;20936;-76
2022/07/29 02:48:30;;;;;;;8.60;6.87;;;;;;;;;;4992866;28;20451;-76
2022/07/29 02:51:03;;;;;;;5.57;5.23;;;;;;;;;;4992604;28;20448;-78
2022/07/29 02:53:30;;;;;;;6.13;5.53;;;;;;;;;;4992061;28;20558;-76
2022/07/29 02:55:58;;;;;;;5.97;5.57;;;;;;;;;;4992697;28;20571;-78
2022/07/29 02:58:28;;;;;;;6.73;6.33;;;;;;;;;;4993457;28;20456;-77
2022/07/29 03:00:56;;;;;;;5.80;5.40;;;;;;;;;;4993386;28;20465;-77
2022/07/29 03:03:25;;;;;;;5.73;5.23;;;;;;;;;;4993067;28;20464;-77
2022/07/29 03:05:54;;;;;;;5.70;5.30;;;;;;;;;;4992437;28;20452;-76
2022/07/29 03:08:23;;;;;;;5.53;5.17;;;;;;;;;;4992739;28;20459;-77
2022/07/29 03:10:50;;;;;;;6.10;5.70;;;;;;;;;;5009158;28;20443;-76
2022/07/29 03:13:18;;;;;;;5.90;5.50;;;;;;;;;;5012143;28;20824;-78
2022/07/29 03:15:45;;;;;;;6.30;5.80;;;;;;;;;;5012550;28;20483;-75
2022/07/29 03:18:12;;;;;;;5.50;5.20;;;;;;;;;;5012347;28;20432;-76
2022/07/29 03:20:40;;;;;;;6.37;5.93;;;;;;;;;;5012251;28;20860;-76
2022/07/29 03:23:07;;;;;;;6.30;5.83;;;;;;;;;;5011572;28;20447;-76
2022/07/29 03:25:36;;;;;;;5.90;5.40;;;;;;;;;;5011843;28;20513;-76
2022/07/29 03:28:03;;;;;;;6.17;5.63;;;;;;;;;;5012509;28;20443;-76
2022/07/29 03:30:30;;;;;;;6.00;5.50;;;;;;;;;;5015810;28;20454;-77
2022/07/29 03:32:58;;;;;;;6.27;5.77;;;;;;;;;;5013447;28;20498;-76
2022/07/29 03:35:25;;;;;;;6.23;5.70;;;;;;;;;;5013711;28;20479;-77
2022/07/29 03:37:52;;;;;;;6.13;5.73;;;;;;;;;;5012312;28;20478;-76
2022/07/29 03:40:21;;;;;;;5.93;5.53;;;;;;;;;;5011788;28;20451;-77
2022/07/29 03:42:50;;;;;;;5.70;5.30;;;;;;;;;;5012188;28;20504;-77
2022/07/29 03:45:19;;;;;;;5.80;5.50;;;;;;;;;;5011725;28;20459;-76
2022/07/29 03:47:48;;;;;;;6.43;5.83;;;;;;;;;;5011845;28;20478;-75
2022/07/29 03:50:16;;;;;;;6.37;5.97;;;;;;;;;;5011148;28;20505;-77
2022/07/29 03:52:44;;;;;;;6.57;6.07;;;;;;;;;;5011582;28;20446;-75
2022/07/29 03:55:11;;;;;;;5.90;5.50;;;;;;;;;;5011338;28;20483;-77
2022/07/29 03:57:39;;;;;;;6.17;5.77;;;;;;;;;;5011292;28;20474;-75
2022/07/29 04:00:08;;;;;;;6.67;6.27;;;;;;;;;;5012022;28;20447;-76
2022/07/29 04:02:36;;;;;;;5.77;5.30;;;;;;;;;;5026046;28;20447;-77
2022/07/29 04:05:04;;;;;;;6.30;5.90;;;;;;;;;;5019382;28;20475;-76
2022/07/29 04:07:31;;;;;;;5.87;5.43;;;;;;;;;;5022821;28;20501;-78
2022/07/29 04:09:58;;;;;;;6.00;5.60;;;;;;;;;;5012945;28;20486;-77
2022/07/29 04:12:25;;;;;;;6.30;5.90;;;;;;;;;;5003168;28;20462;-76
2022/07/29 04:14:52;;;;;;;5.80;5.40;;;;;;;;;;5002674;28;20475;-79
2022/07/29 04:17:21;;;;;;;6.40;5.77;;;;;;;;;;5021450;28;20890;-78
2022/07/29 04:19:48;;;;;;;5.63;5.20;;;;;;;;;;5015636;28;20467;-76
2022/07/29 04:22:15;;;;;;;6.20;5.70;;;;;;;;;;5012620;28;20793;-75
2022/07/29 04:24:42;;;;;;;5.63;5.23;;;;;;;;;;5010644;28;20455;-77
2022/07/29 04:27:09;;;;;;;5.90;5.50;;;;;;;;;;5013677;28;20443;-76
2022/07/29 04:29:36;;;;;;;6.33;5.73;;;;;;;;;;5012806;28;20455;-77
2022/07/29 04:32:03;;;;;;;6.17;5.67;;;;;;;;;;5013526;28;20534;-75
2022/07/29 04:34:31;;;;;;;7.57;6.97;;;;;;;;;;5013213;28;20464;-76
2022/07/29 04:36:58;;;;;;;7.80;7.10;;;;;;;;;;5011646;28;20491;-77
2022/07/29 04:39:25;;;;;;;6.43;6.03;;;;;;;;;;5010617;28;20451;-75
2022/07/29 04:41:53;;;;;;;6.03;5.53;;;;;;;;;;5012424;28;20547;-77
2022/07/29 04:44:20;;;;;;;5.83;5.33;;;;;;;;;;5022165;28;20467;-75
2022/07/29 04:46:47;;;;;;;6.40;6.00;;;;;;;;;;5034748;28;20459;-75
2022/07/29 04:49:14;;;;;;;5.90;5.40;;;;;;;;;;5032653;28;20439;-75
2022/07/29 04:51:42;;;;;;;6.57;5.87;;;;;;;;;;5024283;28;20456;-78
2022/07/29 04:54:09;;;;;;;6.40;5.90;;;;;;;;;;5015624;28;20463;-76
2022/07/29 04:56:36;;;;;;;4.70;4.40;;;;;;;;;;5013829;28;20497;-75
2022/07/29 04:59:03;;;;;;;4.80;4.50;;;;;;;;;;5010158;28;20447;-76
2022/07/29 05:01:30;;;;;;;5.27;4.77;;;;;;;;;;5010051;28;20447;-77
2022/07/29 05:03:57;;;;;;;4.60;4.37;;;;;;;;;;5009733;28;20471;-76
2022/07/29 05:06:24;;;;;;;5.07;4.73;;;;;;;;;;5011464;28;20943;-76
2022/07/29 05:08:53;;;;;;;4.60;4.30;;;;;;;;;;5009915;28;20447;-76
2022/07/29 05:11:20;;;;;;;4.70;4.30;;;;;;;;;;5009988;28;20447;-77
2022/07/29 05:13:47;;;;;;;4.77;4.47;;;;;;;;;;5010616;28;21070;-76
2022/07/29 05:16:14;;;;;;;3.80;3.60;;;;;;;;;;5012845;28;20479;-76
2022/07/29 05:18:41;;;;;;;4.90;4.50;;;;;;;;;;5013380;28;20470;-75
2022/07/29 05:21:08;;;;;;;4.97;4.57;;;;;;;;;;5013511;28;20451;-77
2022/07/29 05:23:35;;;;;;;4.40;4.10;;;;;;;;;;5013053;28;20532;-79
2022/07/29 05:26:04;;;;;;;4.33;4.03;;;;;;;;;;5013417;28;20443;-77
2022/07/29 05:28:34;;;;;;;5.57;5.17;;;;;;;;;;5015260;28;20454;-76
2022/07/29 05:31:01;;;;;;;4.83;4.53;;;;;;;;;;5013851;28;20447;-78
2022/07/29 05:33:28;;;;;;;5.20;4.80;;;;;;;;;;5013930;28;20490;-78
2022/07/29 05:35:55;;;;;;;5.50;5.00;;;;;;;;;;5013158;28;20537;-77
2022/07/29 05:38:22;;;;;;;4.83;4.43;;;;;;;;;;5014007;28;20478;-76
2022/07/29 05:40:49;;;;;;;4.80;3.90;;;;;;;;;;5014994;28;20935;-76
2022/07/29 05:43:17;;;;;;;3.60;3.40;;;;;;;;;;5013065;28;20525;-75
2022/07/29 05:45:44;;;;;;;3.90;3.70;;;;;;;;;;5013212;28;20439;-76
2022/07/29 05:48:11;;;;;;;3.93;3.63;;;;;;;;;;5013465;28;20498;-77
2022/07/29 05:50:39;;;;;;;3.83;3.43;;;;;;;;;;5013299;28;20447;-78
2022/07/29 05:53:06;;;;;;;4.90;4.50;;;;;;;;;;5008591;28;20460;-77
2022/07/29 05:55:33;;;;;;;8.07;7.47;;;;;;;;;;5009727;28;20506;-79
2022/07/29 05:58:00;;;;;;;4.70;4.30;;;;;;;;;;5012985;28;20871;-75
2022/07/29 06:00:28;;;;;;;4.23;3.97;;;;;;;;;;5013273;28;20447;-76
2022/07/29 06:02:55;;;;;;;4.47;4.07;;;;;;;;;;5009315;28;20459;-76
2022/07/29 06:05:22;;;;;;;4.27;3.87;;;;;;;;;;5012737;28;20858;-76
2022/07/29 06:07:49;;;;;;;4.20;4.00;;;;;;;;;;5012758;28;20497;-76
2022/07/29 06:10:16;;;;;;;4.70;4.30;;;;;;;;;;5013306;28;20451;-78
2022/07/29 06:12:43;;;;;;;3.93;3.73;;;;;;;;;;5012523;28;20444;-76
2022/07/29 06:15:10;;;;;;;4.13;3.83;;;;;;;;;;5012359;28;20483;-78
2022/07/29 06:17:39;;;;;;;4.17;3.87;;;;;;;;;;5012438;28;20491;-77
2022/07/29 06:20:06;;;;;;;4.20;3.90;;;;;;;;;;5011811;28;20943;-76
2022/07/29 06:22:33;;;;;;;4.40;4.00;;;;;;;;;;5011972;28;20447;-76
2022/07/29 06:25:00;;;;;;;3.80;3.50;;;;;;;;;;5012176;28;20467;-76
2022/07/29 06:27:27;;;;;;;4.50;4.20;;;;;;;;;;5011791;28;20439;-75
2022/07/29 06:29:54;;;;;;;4.03;3.77;;;;;;;;;;5012094;28;20428;-77
2022/07/29 06:32:22;;;;;;;3.97;3.77;;;;;;;;;;5011935;28;20534;-76
2022/07/29 06:34:50;;;;;;;4.23;4.00;;;;;;;;;;5011697;28;20991;-77
2022/07/29 06:37:17;;;;;;;5.23;4.90;;;;;;;;;;5012072;28;20483;-76
2022/07/29 06:39:44;;;;;;;4.17;3.87;;;;;;;;;;5011883;28;20447;-76
2022/07/29 06:42:11;;;;;;;5.83;4.50;;;;;;;;;;5020869;28;20443;-76
2022/07/29 06:44:38;;;;;;;4.30;4.10;;;;;;;;;;5016664;28;20459;-76
2022/07/29 06:47:05;;;;;;;6.20;4.47;;;;;;;;;;5011905;28;20439;-76
2022/07/29 06:49:32;;;;;;;4.80;4.50;;;;;;;;;;5011781;28;20505;-75
2022/07/29 06:52:00;;;;;;;4.40;4.20;;;;;;;;;;5011521;28;20509;-77
2022/07/29 06:54:27;;;;;;;4.87;4.40;;;;;;;;;;5011407;28;20475;-76
2022/07/29 06:56:55;;;;;;;5.87;4.00;;;;;;;;;;5011608;28;21002;-75
2022/07/29 06:59:22;;;;;;;4.90;4.33;;;;;;;;;;5012257;28;20455;-78
2022/07/29 07:01:49;;;;;;;4.87;4.47;;;;;;;;;;5012079;28;20924;-77
2022/07/29 07:04:16;;;;;;;5.70;5.40;;;;;;;;;;5013096;28;20454;-78
2022/07/29 07:06:43;;;;;;;4.43;4.10;;;;;;;;;;5011567;28;20455;-77
2022/07/29 07:09:12;;;;;;;5.83;4.67;;;;;;;;;;5011254;28;20478;-77
2022/07/29 07:11:39;;;;;;;4.67;4.37;;;;;;;;;;5012037;28;20451;-76
2022/07/29 07:14:06;;;;;;;4.77;4.37;;;;;;;;;;5011170;28;20475;-76
2022/07/29 07:16:33;;;;;;;4.53;4.30;;;;;;;;;;5011591;28;20489;-77
2022/07/29 07:19:00;;;;;;;5.00;4.50;;;;;;;;;;5011204;28;20462;-78
2022/07/29 07:21:27;;;;;;;5.13;4.73;;;;;;;;;;5011150;28;20451;-78
2022/07/29 07:23:54;;;;;;;4.33;3.93;;;;;;;;;;5010791;28;20537;-77
2022/07/29 07:26:22;;;;;;;5.10;4.70;;;;;;;;;;5011139;28;20797;-77
2022/07/29 07:28:50;;;;;;;5.30;4.80;;;;;;;;;;5010832;28;20447;-75
2022/07/29 07:31:17;;;;;;;4.67;4.40;;;;;;;;;;5011361;28;20490;-77
2022/07/29 07:33:44;;;;;;;4.50;4.20;;;;;;;;;;5010610;28;20466;-77
2022/07/29 07:36:11;;;;;;;5.00;4.63;;;;;;;;;;5011298;28;20446;-77
2022/07/29 07:38:38;;;;;;;4.97;4.60;;;;;;;;;;5010612;28;20455;-77
2022/07/29 07:41:05;;;;;;;4.93;4.63;;;;;;;;;;5012742;28;20448;-78
2022/07/29 07:43:33;;;;;;;5.33;4.90;;;;;;;;;;5012995;28;20475;-77
2022/07/29 07:46:00;;;;;;;5.60;5.27;;;;;;;;;;5011532;28;20482;-76
2022/07/29 07:48:27;;;;;;;5.87;5.40;;;;;;;;;;5011302;28;20517;-77
2022/07/29 07:50:54;;;;;;;5.53;5.13;;;;;;;;;;5011649;28;20451;-76
2022/07/29 07:53:21;;;;;;;4.93;4.50;;;;;;;;;;5012599;28;20494;-75
2022/07/29 07:55:48;;;;;;;5.80;5.07;;;;;;;;;;5016035;28;20447;-76
2022/07/29 07:58:15;;;;;;;4.80;4.50;;;;;;;;;;5014196;28;20483;-76
2022/07/29 08:00:44;;;;;;;5.10;4.80;;;;;;;;;;5015166;28;20506;-77
2022/07/29 08:03:12;;;;;;;4.90;4.20;;;;;;;;;;5017969;28;20943;-77
2022/07/29 08:05:39;;;;;;;4.97;4.67;;;;;;;;;;5015564;28;20458;-76
2022/07/29 08:08:06;;;;;;;4.47;4.27;;;;;;;;;;5013026;28;20449;-77
2022/07/29 08:13:19;;;;;;;5.30;4.80;;;;;;;;;;4991369;28;20455;-79
2022/07/29 08:15:57;;;;;;;4.77;4.47;;;;;;;;;;4994420;28;20806;-76
2022/07/29 08:18:24;;;;;;;5.17;4.57;;;;;;;;;;4996449;28;20846;-76
2022/07/29 08:20:51;;;;;;;5.07;4.67;;;;;;;;;;4991682;28;20452;-77
2022/07/29 08:23:18;;;;;;;5.10;4.80;;;;;;;;;;4990956;28;20468;-77
2022/07/29 08:25:45;;;;;;;5.00;4.60;;;;;;;;;;4991973;28;20447;-77
2022/07/29 08:28:12;;;;;;;6.50;5.30;;;;;;;;;;4991444;28;20490;-77
2022/07/29 08:30:40;;;;;;;5.40;4.97;;;;;;;;;;4993308;28;20445;-77
2022/07/29 08:33:08;;;;;;;7.40;5.87;;;;;;;;;;4994749;28;20462;-78
2022/07/29 08:35:35;;;;;;;5.63;5.23;;;;;;;;;;4995089;28;20452;-79
2022/07/29 08:38:03;;;;;;;5.40;5.00;;;;;;;;;;5011754;28;20998;-77
2022/07/29 08:40:30;;;;;;;5.97;5.47;;;;;;;;;;5009331;28;20512;-76
2022/07/29 08:42:57;;;;;;;4.77;4.47;;;;;;;;;;5013144;28;20439;-78
2022/07/29 08:45:24;;;;;;;5.30;4.60;;;;;;;;;;5011835;28;20467;-77
2022/07/29 08:47:51;;;;;;;5.90;5.37;;;;;;;;;;5011830;28;20489;-77
2022/07/29 08:50:20;;;;;;;5.90;5.50;;;;;;;;;;5011167;28;20501;-76
2022/07/29 08:52:47;;;;;;;4.93;4.53;;;;;;;;;;5015283;28;20525;-78
2022/07/29 08:55:16;;;;;;;5.67;5.20;;;;;;;;;;5016028;28;20864;-79
2022/07/29 08:57:43;;;;;;;5.23;4.87;;;;;;;;;;5015764;28;20498;-77
2022/07/29 09:00:11;;;;;;;5.17;4.87;;;;;;;;;;5016463;28;20443;-76
2022/07/29 09:02:41;;;;;;;8.53;5.60;;;;;;;;;;5016792;28;20541;-77
2022/07/29 09:05:09;;;;;;;7.53;5.23;;;;;;;;;;5012411;28;20466;-76
2022/07/29 09:07:37;;;;;;;5.80;5.37;;;;;;;;;;5014088;28;20446;-77
2022/07/29 09:10:05;;;;;;;5.40;4.60;;;;;;;;;;5001975;28;20495;-76
2022/07/29 09:12:32;;;;;;;5.87;5.07;;;;;;;;;;4995440;28;20510;-76
2022/07/29 09:14:59;;;;;;;7.17;4.80;;;;;;;;;;4998063;28;20881;-77
2022/07/29 09:17:42;;;;;;;5.30;4.90;;;;;;;;;;5002753;28;20479;-77
2022/07/29 09:20:10;;;;;;;5.30;4.83;;;;;;;;;;5009934;28;20513;-79
2022/07/29 09:22:39;;;;;;;5.80;5.27;;;;;;;;;;5014417;28;20451;-77
2022/07/29 09:25:06;;;;;;;5.50;5.20;;;;;;;;;;5016532;28;20475;-76
2022/07/29 09:27:34;;;;;;;4.93;4.60;;;;;;;;;;5021214;28;20503;-78
2022/07/29 09:30:02;;;;;;;5.90;5.40;;;;;;;;;;5016758;28;20443;-75
2022/07/29 09:32:29;;;;;;;5.90;5.40;;;;;;;;;;5019591;28;20534;-77
2022/07/29 09:35:15;;;;;;;5.47;4.93;;;;;;;;;;5016197;28;20471;-77
2022/07/29 09:37:43;;;;;;;6.30;5.13;;;;;;;;;;5021578;28;20478;-77
2022/07/29 09:40:15;;;;;;;6.53;5.13;;;;;;;;;;5020972;28;20455;-77
2022/07/29 09:42:42;;;;;;;5.90;5.40;;;;;;;;;;5021355;28;20455;-77
2022/07/29 09:45:10;;;;;;;5.57;5.10;;;;;;;;;;5015090;28;20478;-78
2022/07/29 09:47:46;;;;;;;6.37;5.87;;;;;;;;;;5015582;28;20439;-77
2022/07/29 09:50:13;;;;;;;6.03;4.90;;;;;;;;;;5021343;28;20451;-78
2022/07/29 09:52:48;;;;;;;5.70;5.30;;;;;;;;;;5017161;28;20447;-78
2022/07/29 09:55:15;;;;;;;5.50;5.10;;;;;;;;;;5019444;28;20470;-78
2022/07/29 09:57:42;;;;;;;6.07;5.60;;;;;;;;;;5020726;28;20542;-77
2022/07/29 10:00:10;;;;;;;5.80;5.30;;;;;;;;;;5017969;28;20459;-77
2022/07/29 10:02:38;;;;;;;5.40;5.00;;;;;;;;;;5012180;28;21064;-77
2022/07/29 10:05:06;;;;;;;5.80;5.40;;;;;;;;;;5012599;28;20898;-77
2022/07/29 10:07:45;;;;;;;16.07;14.47;;;;;;;;;;5013147;28;21252;-79
2022/07/29 10:10:19;;;;;;;11.30;10.37;;;;;;;;;;5013016;28;20522;-78
2022/07/29 10:12:50;;;;;;;22.30;20.20;;;;;;;;;;5013079;28;20439;-77
2022/07/29 10:15:17;;;;;;;10.60;9.80;;;;;;;;;;5012733;28;20475;-76
2022/07/29 10:17:45;;;;;;;16.20;8.20;;;;;;;;;;5012769;28;20486;-77
2022/07/29 10:20:12;;;;;;;11.03;8.07;;;;;;;;;;5013224;28;20944;-77
2022/07/29 10:22:39;;;;;;;6.60;5.87;;;;;;;;;;5013664;28;20446;-77
2022/07/29 10:25:07;;;;;;;5.53;5.23;;;;;;;;;;5013130;28;20510;-78
2022/07/29 10:27:36;;;;;;;6.30;5.80;;;;;;;;;;5013099;28;20943;-77
2022/07/29 10:30:04;;;;;;;6.13;5.60;;;;;;;;;;5012747;28;20443;-77
2022/07/29 10:32:46;;;;;;;6.50;5.83;;;;;;;;;;5012477;28;20451;-76
2022/07/29 10:35:43;;;;;;;5.70;5.30;;;;;;;;;;5010309;28;20510;-77
2022/07/29 10:38:27;;;;;;;6.53;6.03;;;;;;;;;;4951446;29;20513;-77
2022/07/29 10:43:58;;;;;;;6.63;6.13;;;;;;;;;;4989795;28;20448;-77
2022/07/29 10:46:25;;;;;;;7.20;6.50;;;;;;;;;;5006847;28;20455;-77
2022/07/29 10:49:11;;;;;;;9.03;5.80;;;;;;;;;;5011521;28;20443;-76
2022/07/29 10:51:57;;;;;;;9.23;6.30;;;;;;;;;;5014681;28;20458;-77
2022/07/29 10:54:44;;;;;;;7.33;6.63;;;;;;;;;;5014203;28;20470;-77
2022/07/29 10:57:12;;;;;;;7.07;6.43;;;;;;;;;;5013601;28;20868;-77
2022/07/29 10:59:41;;;;;;;6.17;5.67;;;;;;;;;;5012188;28;20455;-77
2022/07/29 11:02:23;;;;;;;6.30;5.80;;;;;;;;;;5011517;28;20514;-77
2022/07/29 11:05:04;;;;;;;7.93;7.33;;;;;;;;;;5007605;28;20467;-77
2022/07/29 11:07:31;;;;;;;7.20;6.60;;;;;;;;;;5002765;28;20466;-77
2022/07/29 11:10:17;;;;;;;7.40;6.80;;;;;;;;;;4995852;28;20485;-78
2022/07/29 11:12:47;;;;;;;8.00;7.40;;;;;;;;;;5011471;28;20443;-78
2022/07/29 11:15:20;;;;;;;9.40;8.57;;;;;;;;;;5013854;28;20549;-77
2022/07/29 11:18:02;;;;;;;9.83;8.90;;;;;;;;;;5015077;28;20545;-78
2022/07/29 11:20:33;;;;;;;10.77;9.40;;;;;;;;;;5010350;28;20451;-78
2022/07/29 11:23:00;;;;;;;10.93;10.00;;;;;;;;;;5004403;28;20455;-79
2022/07/29 11:25:29;;;;;;;8.93;8.20;;;;;;;;;;5010296;28;20459;-77
2022/07/29 11:28:09;;;;;;;9.63;8.93;;;;;;;;;;5012065;28;20563;-77
2022/07/29 11:30:50;;;;;;;9.47;8.77;;;;;;;;;;5011182;28;20455;-77
2022/07/29 11:33:28;;;;;;;10.00;9.20;;;;;;;;;;5001962;28;20464;-78
2022/07/29 11:36:11;;;;;;;11.10;9.93;;;;;;;;;;5008267;28;20454;-78
2022/07/29 11:38:39;;;;;;;10.13;8.70;;;;;;;;;;5011974;28;20906;-76
2022/07/29 11:41:22;;;;;;;10.83;9.67;;;;;;;;;;5004014;28;20455;-77
2022/07/29 11:43:50;;;;;;;10.67;9.60;;;;;;;;;;5008423;28;20475;-76
2022/07/29 11:46:19;;;;;;;10.30;9.40;;;;;;;;;;5004434;28;20542;-77
2022/07/29 11:48:46;;;;;;;10.37;9.27;;;;;;;;;;5007418;28;20444;-78
2022/07/29 11:51:14;;;;;;;10.10;9.10;;;;;;;;;;5010434;28;20502;-77
2022/07/29 11:53:41;;;;;;;8.60;8.03;;;;;;;;;;5008008;28;20476;-77
2022/07/29 11:56:10;;;;;;;9.10;8.50;;;;;;;;;;5003635;28;20959;-76
2022/07/29 11:58:38;;;;;;;10.23;9.33;;;;;;;;;;5000218;28;20484;-78
2022/07/29 12:01:06;;;;;;;10.23;9.53;;;;;;;;;;5009631;28;20443;-77
2022/07/29 12:03:34;;;;;;;11.13;10.23;;;;;;;;;;5010018;28;20920;-77
2022/07/29 12:06:13;;;;;;;10.73;9.63;;;;;;;;;;5009344;28;20509;-76
2022/07/29 12:08:42;;;;;;;10.27;9.27;;;;;;;;;;5009753;28;20526;-76
2022/07/29 12:11:16;;;;;;;10.87;10.07;;;;;;;;;;5009855;28;20454;-76
2022/07/29 12:13:43;;;;;;;10.63;9.53;;;;;;;;;;5009381;28;20475;-76
2022/07/29 12:16:10;;;;;;;10.73;9.83;;;;;;;;;;5009878;28;20509;-76
2022/07/29 12:18:38;;;;;;;11.03;10.00;;;;;;;;;;5009567;28;20483;-77
2022/07/29 12:21:06;;;;;;;11.60;10.60;;;;;;;;;;5009672;28;20875;-77
2022/07/29 12:23:33;;;;;;;10.37;9.50;;;;;;;;;;5009417;28;20521;-77
2022/07/29 12:26:01;;;;;;;10.30;9.40;;;;;;;;;;5011957;28;20517;-76
2022/07/29 12:28:28;;;;;;;10.00;9.20;;;;;;;;;;5013552;28;20443;-77
2022/07/29 12:30:55;;;;;;;8.70;8.00;;;;;;;;;;5013316;28;20453;-77
2022/07/29 12:33:23;;;;;;;8.00;7.30;;;;;;;;;;5013337;28;20993;-77
2022/07/29 12:35:52;;;;;;;8.00;7.30;;;;;;;;;;5013337;28;20442;-78
2022/07/29 12:38:20;;;;;;;8.63;7.80;;;;;;;;;;5013022;28;20897;-77
2022/07/29 12:40:48;;;;;;;7.90;7.20;;;;;;;;;;5013344;28;20439;-77
2022/07/29 12:43:16;;;;;;;7.47;6.70;;;;;;;;;;5013163;28;20447;-78
2022/07/29 12:45:44;;;;;;;6.60;6.10;;;;;;;;;;5013486;28;20572;-77
2022/07/29 12:48:11;;;;;;;7.37;6.77;;;;;;;;;;5013548;28;20451;-78
2022/07/29 12:50:39;;;;;;;6.77;6.37;;;;;;;;;;5012921;28;20443;-77
2022/07/29 12:53:14;;;;;;;7.50;6.90;;;;;;;;;;5012692;28;21156;-77
2022/07/29 12:55:44;;;;;;;7.50;6.93;;;;;;;;;;5013316;28;20608;-76
2022/07/29 12:58:12;;;;;;;7.80;7.20;;;;;;;;;;5012875;28;20562;-75
2022/07/29 13:00:39;;;;;;;8.30;7.60;;;;;;;;;;5012790;28;20477;-76
2022/07/29 13:03:06;;;;;;;8.00;7.30;;;;;;;;;;5012753;28;20446;-75
2022/07/29 13:05:43;;;;;;;8.57;6.90;;;;;;;;;;5012557;28;20439;-76
2022/07/29 13:08:16;;;;;;;7.40;6.80;;;;;;;;;;5012780;28;20427;-75
2022/07/29 13:10:43;;;;;;;9.07;7.20;;;;;;;;;;5012132;28;20501;-75
2022/07/29 13:13:11;;;;;;;8.10;7.03;;;;;;;;;;5012057;28;20974;-75
2022/07/29 13:15:39;;;;;;;7.50;6.80;;;;;;;;;;5012211;28;21036;-77
2022/07/29 13:18:06;;;;;;;7.80;7.17;;;;;;;;;;5012500;28;20486;-76
2022/07/29 13:20:33;;;;;;;7.90;7.20;;;;;;;;;;5012418;28;20589;-77
2022/07/29 13:23:01;;;;;;;8.17;7.37;;;;;;;;;;5012293;28;20439;-78
2022/07/29 13:25:31;;;;;;;8.00;7.20;;;;;;;;;;5012791;28;20821;-76
2022/07/29 13:27:58;;;;;;;9.57;8.53;;;;;;;;;;5013187;28;20470;-77
2022/07/29 13:30:25;;;;;;;9.63;8.47;;;;;;;;;;5013452;28;20451;-77
2022/07/29 13:32:54;;;;;;;10.60;9.13;;;;;;;;;;5012735;28;20948;-77
2022/07/29 13:35:21;;;;;;;10.00;9.00;;;;;;;;;;5012494;28;20451;-78
2022/07/29 13:37:48;;;;;;;10.63;8.70;;;;;;;;;;5011688;28;20470;-78
2022/07/29 13:40:15;;;;;;;10.50;9.80;;;;;;;;;;5012152;28;20541;-77
2022/07/29 13:42:44;;;;;;;8.97;8.17;;;;;;;;;;5012032;28;21009;-77
2022/07/29 13:45:11;;;;;;;7.87;7.10;;;;;;;;;;5012502;28;20475;-77
2022/07/29 13:47:39;;;;;;;8.50;7.80;;;;;;;;;;5012565;28;20547;-78
2022/07/29 13:50:07;;;;;;;9.90;9.10;;;;;;;;;;5012005;28;20452;-77
2022/07/29 13:52:34;;;;;;;9.70;8.13;;;;;;;;;;5012488;28;20450;-79
2022/07/29 13:55:01;;;;;;;11.50;9.20;;;;;;;;;;5012655;28;20467;-78
2022/07/29 13:57:28;;;;;;;9.50;8.83;;;;;;;;;;5012204;28;20450;-77
2022/07/29 13:59:57;;;;;;;9.10;8.30;;;;;;;;;;5012018;28;20552;-77
2022/07/29 14:02:24;;;;;;;9.63;8.90;;;;;;;;;;5012232;28;20537;-77
2022/07/29 14:04:51;;;;;;;10.27;9.47;;;;;;;;;;5013729;28;20521;-76
2022/07/29 14:07:18;;;;;;;8.40;7.80;;;;;;;;;;5014354;28;20549;-76
2022/07/29 14:09:45;;;;;;;9.10;8.50;;;;;;;;;;5012517;28;20443;-79
2022/07/29 14:12:12;;;;;;;9.43;8.63;;;;;;;;;;5011830;28;20501;-77
2022/07/29 14:14:39;;;;;;;9.10;8.43;;;;;;;;;;5011385;28;20467;-77
2022/07/29 14:17:07;;;;;;;10.77;9.80;;;;;;;;;;5012037;28;20827;-76
2022/07/29 14:19:37;;;;;;;10.03;9.10;;;;;;;;;;5011276;28;20487;-76
2022/07/29 14:22:04;;;;;;;10.23;9.53;;;;;;;;;;5011929;28;20447;-78
2022/07/29 14:24:31;;;;;;;10.37;9.27;;;;;;;;;;5011305;28;20459;-76
2022/07/29 14:26:58;;;;;;;9.90;9.10;;;;;;;;;;5013862;28;20509;-76
2022/07/29 14:29:26;;;;;;;10.00;8.90;;;;;;;;;;5016154;28;20443;-76
2022/07/29 14:31:53;;;;;;;9.97;9.27;;;;;;;;;;5012693;28;20447;-76
2022/07/29 14:34:21;;;;;;;10.47;9.63;;;;;;;;;;5011036;28;20529;-76
2022/07/29 14:36:48;;;;;;;10.10;9.33;;;;;;;;;;5011481;28;20594;-76
2022/07/29 14:39:16;;;;;;;9.50;8.80;;;;;;;;;;5011363;28;20482;-76
2022/07/29 14:41:43;;;;;;;9.60;8.80;;;;;;;;;;5011187;28;20535;-75
2022/07/29 14:44:10;;;;;;;9.20;8.50;;;;;;;;;;5010840;28;20456;-77
2022/07/29 14:46:37;;;;;;;9.53;8.73;;;;;;;;;;5011408;28;20474;-76
2022/07/29 14:49:05;;;;;;;9.27;8.60;;;;;;;;;;5010989;28;20812;-77
2022/07/29 14:51:33;;;;;;;10.10;9.30;;;;;;;;;;5011021;28;20550;-77
2022/07/29 14:54:00;;;;;;;10.77;9.27;;;;;;;;;;5014213;28;20494;-77
2022/07/29 14:56:29;;;;;;;9.73;8.93;;;;;;;;;;5030670;28;20439;-76
2022/07/29 14:58:57;;;;;;;9.93;9.03;;;;;;;;;;5030506;28;20478;-76